createdAt,value
2023-07-11T00:01:22.695Z,6.97
2023-07-11T00:03:51.153Z,6.97
2023-07-11T00:06:20.536Z,7.87
2023-07-11T00:08:49.813Z,6.47
2023-07-11T00:11:19.964Z,6.97
2023-07-11T00:13:51.408Z,6.90
2023-07-11T00:16:20.314Z,7.83
2023-07-11T00:18:48.206Z,6.97
2023-07-11T00:21:16.135Z,7.43
2023-07-11T00:23:44.044Z,7.07
2023-07-11T00:26:13.346Z,6.80
2023-07-11T00:28:41.251Z,7.40
2023-07-11T00:31:09.289Z,7.37
2023-07-11T00:33:37.238Z,7.33
2023-07-11T00:36:05.543Z,7.00
2023-07-11T00:38:33.633Z,7.90
2023-07-11T00:41:01.577Z,7.63
2023-07-11T00:43:30.873Z,7.43
2023-07-11T00:46:13.569Z,7.77
2023-07-11T00:48:44.040Z,8.20
2023-07-11T00:51:14.201Z,7.70
2023-07-11T00:53:43.673Z,7.90
2023-07-11T00:56:13.320Z,7.80
2023-07-11T00:58:44.332Z,8.47
2023-07-11T01:01:12.790Z,7.97
2023-07-11T01:03:40.893Z,9.03
2023-07-11T01:06:12.571Z,8.87
2023-07-11T01:08:40.568Z,8.43
2023-07-11T01:11:08.606Z,8.70
2023-07-11T01:13:36.888Z,8.80
2023-07-11T01:16:06.562Z,9.23
2023-07-11T01:18:34.707Z,9.90
2023-07-11T01:21:02.915Z,10.07
2023-07-11T01:23:32.752Z,8.63
2023-07-11T01:26:02.081Z,8.83
2023-07-11T01:28:30.207Z,9.30
2023-07-11T01:30:58.186Z,9.40
2023-07-11T01:33:28.097Z,10.53
2023-07-11T01:35:57.330Z,10.30
2023-07-11T01:38:26.275Z,10.73
2023-07-11T01:40:55.578Z,11.33
2023-07-11T01:43:23.514Z,10.70
2023-07-11T01:45:51.467Z,10.07
2023-07-11T01:48:19.548Z,10.43
2023-07-11T01:50:47.454Z,10.93
2023-07-11T01:53:15.310Z,10.60
2023-07-11T01:55:43.182Z,11.27
2023-07-11T01:58:12.444Z,11.33
2023-07-11T02:00:41.476Z,10.83
2023-07-11T02:03:09.446Z,11.07
2023-07-11T02:05:37.359Z,11.23
2023-07-11T02:08:05.563Z,12.80
2023-07-11T02:10:33.428Z,12.60
2023-07-11T02:13:01.248Z,12.77
2023-07-11T02:15:30.491Z,12.53
2023-07-11T02:17:58.740Z,12.83
2023-07-11T02:20:26.839Z,12.73
2023-07-11T02:22:54.784Z,11.77
2023-07-11T02:25:22.697Z,12.80
2023-07-11T02:27:50.589Z,12.77
2023-07-11T02:30:18.673Z,12.93
2023-07-11T02:32:47.924Z,12.33
2023-07-11T02:35:15.829Z,13.13
2023-07-11T02:37:43.672Z,12.73
2023-07-11T02:40:11.736Z,13.33
2023-07-11T02:42:39.597Z,13.37
2023-07-11T02:45:08.273Z,12.87
2023-07-11T02:47:36.575Z,13.50
2023-07-11T02:50:06.972Z,13.43
2023-07-11T02:52:35.551Z,13.37
2023-07-11T02:55:03.552Z,13.10
2023-07-11T02:57:31.805Z,14.00
2023-07-11T02:59:59.636Z,13.60
2023-07-11T03:02:27.545Z,14.43
2023-07-11T03:04:55.609Z,14.33
2023-07-11T03:07:25.122Z,14.67
2023-07-11T03:09:53.457Z,14.67
2023-07-11T03:12:21.374Z,15.77
2023-07-11T03:14:50.581Z,14.77
2023-07-11T03:17:18.906Z,15.03
2023-07-11T03:19:46.960Z,16.17
2023-07-11T03:22:14.905Z,16.53
2023-07-11T03:24:44.192Z,16.00
2023-07-11T03:27:13.581Z,17.57
2023-07-11T03:29:41.428Z,16.60
2023-07-11T03:32:11.288Z,16.13
2023-07-11T03:34:49.255Z,16.23
2023-07-11T03:37:21.790Z,15.90
2023-07-11T03:39:51.533Z,14.80
2023-07-11T03:42:19.536Z,16.13
2023-07-11T03:44:47.476Z,18.00
2023-07-11T03:47:15.443Z,17.57
2023-07-11T03:49:43.337Z,16.67
2023-07-11T03:52:11.243Z,15.00
2023-07-11T03:54:39.220Z,15.97
2023-07-11T03:57:08.838Z,14.80
2023-07-11T03:59:36.773Z,15.43
2023-07-11T04:02:04.786Z,14.77
2023-07-11T04:04:32.753Z,13.47
2023-07-11T04:07:00.622Z,14.87
2023-07-11T04:09:28.506Z,13.33
2023-07-11T04:11:56.468Z,13.90
2023-07-11T04:14:25.865Z,15.07
2023-07-11T04:16:53.897Z,13.73
2023-07-11T04:19:21.775Z,14.33
2023-07-11T04:21:49.670Z,13.20
2023-07-11T04:24:17.780Z,13.93
2023-07-11T04:26:45.718Z,13.47
2023-07-11T04:29:13.771Z,13.13
2023-07-11T04:31:43.090Z,14.00
2023-07-11T04:34:11.014Z,13.33
2023-07-11T04:36:38.889Z,13.37
2023-07-11T04:39:07.554Z,13.67
2023-07-11T04:41:35.515Z,12.50
2023-07-11T04:44:03.365Z,12.37
2023-07-11T04:46:31.255Z,12.33
2023-07-11T04:49:01.090Z,11.03
2023-07-11T04:51:29.057Z,11.97
2023-07-11T04:53:56.947Z,12.57
2023-07-11T04:56:24.816Z,12.60
2023-07-11T04:58:52.670Z,12.33
2023-07-11T05:01:22.609Z,12.30
2023-07-11T05:03:51.296Z,11.70
2023-07-11T05:06:21.906Z,13.63
2023-07-11T05:08:49.825Z,12.57
2023-07-11T05:11:19.072Z,11.57
2023-07-11T05:13:48.667Z,11.67
2023-07-11T05:16:18.214Z,12.07
2023-07-11T05:18:47.335Z,11.97
2023-07-11T05:21:17.501Z,11.33
2023-07-11T05:23:46.884Z,11.93
2023-07-11T05:26:15.540Z,11.23
2023-07-11T05:28:43.799Z,11.73
2023-07-11T05:31:12.270Z,11.57
2023-07-11T05:33:40.407Z,10.87
2023-07-11T05:36:16.237Z,11.07
2023-07-11T05:38:44.221Z,11.80
2023-07-11T05:41:13.490Z,10.60
2023-07-11T05:43:41.449Z,10.83
2023-07-11T05:46:11.861Z,11.27
2023-07-11T05:48:39.923Z,12.03
2023-07-11T05:51:09.604Z,11.03
2023-07-11T05:53:37.956Z,10.63
2023-07-11T05:56:07.064Z,11.80
2023-07-11T05:58:40.725Z,11.63
2023-07-11T06:01:08.920Z,11.07
2023-07-11T06:03:37.458Z,11.53
2023-07-11T06:06:07.809Z,11.67
2023-07-11T06:08:35.869Z,11.10
2023-07-11T06:11:05.578Z,10.60
2023-07-11T06:13:37.230Z,11.37
2023-07-11T06:16:08.239Z,11.20
2023-07-11T06:18:39.520Z,11.77
2023-07-11T06:21:08.525Z,11.23
2023-07-11T06:23:36.851Z,12.33
2023-07-11T06:26:05.762Z,11.73
2023-07-11T06:28:36.207Z,11.70
2023-07-11T06:31:08.819Z,11.17
2023-07-11T06:33:37.176Z,11.73
2023-07-11T06:36:06.489Z,11.10
2023-07-11T06:38:34.522Z,11.23
2023-07-11T06:41:03.600Z,10.87
2023-07-11T06:43:31.883Z,10.60
2023-07-11T06:46:01.207Z,10.37
2023-07-11T06:48:31.871Z,10.23
2023-07-11T06:51:01.505Z,10.43
2023-07-11T06:53:30.975Z,11.37
2023-07-11T06:55:59.191Z,10.03
2023-07-11T06:58:28.922Z,10.60
2023-07-11T07:00:58.445Z,10.30
2023-07-11T07:03:26.804Z,10.07
2023-07-11T07:05:57.485Z,9.23
2023-07-11T07:08:26.440Z,8.73
2023-07-11T07:10:54.873Z,9.23
2023-07-11T07:13:24.719Z,8.33
2023-07-11T07:15:53.996Z,8.47
2023-07-11T07:18:22.634Z,8.50
2023-07-11T07:20:57.887Z,8.23
2023-07-11T07:23:28.216Z,8.80
2023-07-11T07:25:58.602Z,8.23
2023-07-11T07:28:27.582Z,8.53
2023-07-11T07:30:56.972Z,8.23
2023-07-11T07:33:26.392Z,8.30
2023-07-11T07:35:57.070Z,7.90
2023-07-11T07:38:29.511Z,6.53
2023-07-11T07:41:01.321Z,7.43
2023-07-11T07:43:31.631Z,7.40
2023-07-11T07:46:01.281Z,7.40
2023-07-11T07:48:29.581Z,8.03
2023-07-11T07:51:04.120Z,8.80
2023-07-11T07:53:32.804Z,6.80
2023-07-11T07:56:06.018Z,7.57
2023-07-11T07:58:41.703Z,7.10
2023-07-11T08:01:11.993Z,7.43
2023-07-11T08:03:41.291Z,7.10
2023-07-11T08:08:41.229Z,7.40
2023-07-11T08:11:10.960Z,6.97
2023-07-11T08:13:53.637Z,7.00
2023-07-11T08:16:33.015Z,7.37
2023-07-11T08:19:06.126Z,6.73
2023-07-11T08:21:37.623Z,7.80
2023-07-11T08:24:07.136Z,7.33
2023-07-11T08:26:36.410Z,7.37
2023-07-11T08:29:13.261Z,7.83
2023-07-11T08:31:48.389Z,7.40
2023-07-11T08:34:16.348Z,7.03
2023-07-11T08:36:46.720Z,7.40
2023-07-11T08:39:15.081Z,7.03
2023-07-11T08:41:47.061Z,7.53
2023-07-11T08:44:18.193Z,6.93
2023-07-11T08:46:50.229Z,7.20
2023-07-11T08:49:23.288Z,7.87
2023-07-11T08:51:53.621Z,7.30
2023-07-11T08:54:29.837Z,7.63
2023-07-11T08:57:00.824Z,7.50
2023-07-11T08:59:35.495Z,7.27
2023-07-11T09:02:12.371Z,7.50
2023-07-11T09:04:47.294Z,6.90
2023-07-11T09:07:26.084Z,7.10
2023-07-11T09:09:53.977Z,6.87
2023-07-11T09:12:28.093Z,6.80
2023-07-11T09:15:02.448Z,6.93
2023-07-11T09:17:38.837Z,7.77
2023-07-11T09:20:18.150Z,6.87
2023-07-11T09:22:52.578Z,6.80
2023-07-11T09:25:22.570Z,6.50
2023-07-11T09:28:01.475Z,7.30
2023-07-11T09:30:33.828Z,6.97
2023-07-11T09:33:13.300Z,7.17
2023-07-11T09:35:41.804Z,7.77
2023-07-11T09:38:21.497Z,6.97
2023-07-11T09:40:53.113Z,7.47
2023-07-11T09:43:22.388Z,7.40
2023-07-11T09:45:50.348Z,6.43
2023-07-11T09:48:22.812Z,7.10
2023-07-11T09:51:11.539Z,6.87
2023-07-11T09:53:44.255Z,6.90
2023-07-11T09:56:16.182Z,7.90
2023-07-11T09:58:50.967Z,7.50
2023-07-11T10:01:24.322Z,7.17
2023-07-11T10:03:55.405Z,7.77
2023-07-11T10:09:11.798Z,8.07
2023-07-11T10:11:39.765Z,7.30
2023-07-11T10:14:17.728Z,7.17
2023-07-11T10:16:47.668Z,7.53
2023-07-11T10:19:17.394Z,7.57
2023-07-11T10:21:46.734Z,7.60
2023-07-11T10:24:20.045Z,7.67
2023-07-11T10:26:50.505Z,8.50
2023-07-11T10:29:25.715Z,7.43
2023-07-11T10:31:57.087Z,7.80
2023-07-11T10:34:28.709Z,8.73
2023-07-11T10:37:00.268Z,9.27
2023-07-11T10:39:43.261Z,8.97
2023-07-11T10:42:23.174Z,8.40
2023-07-11T10:45:05.596Z,8.50
2023-07-11T10:47:35.590Z,8.43
2023-07-11T10:50:08.434Z,8.60
2023-07-11T10:52:37.998Z,8.33
2023-07-11T10:55:14.565Z,9.23
2023-07-11T10:57:46.226Z,8.40
2023-07-11T11:00:19.156Z,8.03
2023-07-11T11:02:54.748Z,7.67
2023-07-11T11:05:26.904Z,8.63
2023-07-11T11:08:00.046Z,7.70
2023-07-11T11:10:35.304Z,8.60
2023-07-11T11:13:08.583Z,8.43
2023-07-11T11:15:46.758Z,7.87
2023-07-11T11:18:25.268Z,7.83
2023-07-11T11:21:13.323Z,8.30
2023-07-11T11:24:00.011Z,8.10
2023-07-11T11:26:34.708Z,8.10
2023-07-11T11:29:09.516Z,7.10
2023-07-11T11:31:43.540Z,7.17
2023-07-11T11:34:24.528Z,7.90
2023-07-11T11:37:00.025Z,7.17
2023-07-11T11:39:36.932Z,6.90
2023-07-11T11:42:07.663Z,7.10
2023-07-11T11:50:39.784Z,7.17
2023-07-11T11:52:44.841Z,6.57
2023-07-11T11:55:26.693Z,6.77
2023-07-11T11:57:54.879Z,6.37
2023-07-11T12:00:35.051Z,6.43
2023-07-11T12:03:04.438Z,6.20
2023-07-11T12:05:32.466Z,6.67
2023-07-11T12:08:24.366Z,6.20
2023-07-11T12:11:33.399Z,6.77
2023-07-11T12:14:29.735Z,6.37
2023-07-11T12:16:59.758Z,6.40
2023-07-11T12:19:32.114Z,6.27
2023-07-11T12:22:02.917Z,6.80
2023-07-11T12:24:45.058Z,6.17
2023-07-11T12:27:59.755Z,5.80
2023-07-11T12:30:44.808Z,6.20
2023-07-11T12:33:37.447Z,7.30
2023-07-11T12:36:55.307Z,5.97
2023-07-11T12:39:48.811Z,6.17
2023-07-11T12:42:29.142Z,6.20
2023-07-11T12:44:57.076Z,5.87
2023-07-11T12:47:25.130Z,5.83
2023-07-11T12:49:54.298Z,5.97
2023-07-11T12:52:25.350Z,5.60
2023-07-11T12:54:53.258Z,5.87
2023-07-11T12:57:24.448Z,6.07
2023-07-11T12:59:52.502Z,6.40
2023-07-11T13:02:22.971Z,5.57
2023-07-11T13:04:55.677Z,6.10
2023-07-11T13:07:30.296Z,6.47
2023-07-11T13:09:59.713Z,6.00
2023-07-11T13:12:29.053Z,6.00
2023-07-11T13:14:56.939Z,6.17
2023-07-11T13:17:26.116Z,5.97
2023-07-11T13:20:01.280Z,7.20
2023-07-11T13:22:30.654Z,6.00
2023-07-11T13:24:58.954Z,5.77
2023-07-11T13:27:29.869Z,6.10
2023-07-11T13:29:57.931Z,6.50
2023-07-11T13:32:28.343Z,5.97
2023-07-11T13:34:58.212Z,6.20
2023-07-11T13:37:32.490Z,5.83
2023-07-11T13:40:01.854Z,6.10
2023-07-11T13:42:29.981Z,6.50
2023-07-11T13:44:59.186Z,5.80
2023-07-11T13:47:31.843Z,6.33
2023-07-11T13:50:03.915Z,5.50
2023-07-11T13:52:40.738Z,5.80
2023-07-11T13:55:17.249Z,5.90
2023-07-11T13:57:45.404Z,5.80
2023-07-11T14:00:16.303Z,5.30
2023-07-11T14:02:46.217Z,5.30
2023-07-11T14:05:21.534Z,5.43
2023-07-11T14:07:49.891Z,5.73
2023-07-11T14:10:20.284Z,6.60
2023-07-11T14:12:48.817Z,5.37
2023-07-11T14:15:18.636Z,5.10
2023-07-11T14:17:47.614Z,5.00
2023-07-11T14:20:18.788Z,5.73
2023-07-11T14:22:47.739Z,5.33
2023-07-11T14:25:20.949Z,5.30
2023-07-11T14:27:49.089Z,5.47
2023-07-11T14:30:19.265Z,5.03
2023-07-11T14:32:48.093Z,5.30
2023-07-11T14:35:17.066Z,6.07
2023-07-11T14:37:45.945Z,5.30
2023-07-11T14:40:19.383Z,5.13
2023-07-11T14:42:48.612Z,5.00
2023-07-11T14:45:18.642Z,5.07
2023-07-11T14:47:48.346Z,4.97
2023-07-11T14:50:18.541Z,4.90
2023-07-11T14:52:47.169Z,4.60
2023-07-11T15:00:26.615Z,5.33
2023-07-11T15:02:56.041Z,6.77
2023-07-11T15:10:30.623Z,4.87
2023-07-11T15:15:33.086Z,4.83
2023-07-11T15:18:01.114Z,4.47
2023-07-11T15:20:30.396Z,5.27
2023-07-11T15:22:59.742Z,5.13
2023-07-11T15:25:30.680Z,5.30
2023-07-11T15:28:00.907Z,4.67
2023-07-11T15:30:29.708Z,5.00
2023-07-11T15:32:58.342Z,6.73
2023-07-11T15:35:27.600Z,4.50
2023-07-11T15:37:55.563Z,5.27
2023-07-11T15:40:25.214Z,4.87
2023-07-11T15:42:53.776Z,5.03
2023-07-11T15:45:25.929Z,5.23
2023-07-11T15:47:54.940Z,4.87
2023-07-11T15:50:24.254Z,4.97
2023-07-11T15:52:52.600Z,5.00
2023-07-11T15:55:22.362Z,5.13
2023-07-11T15:57:51.560Z,5.23
2023-07-11T16:00:24.400Z,4.83
2023-07-11T16:02:52.676Z,4.70
2023-07-11T16:05:21.871Z,4.83
2023-07-11T16:07:50.030Z,5.40
2023-07-11T16:10:20.888Z,4.80
2023-07-11T16:12:49.089Z,5.03
2023-07-11T16:15:17.975Z,5.40
2023-07-11T16:17:50.213Z,5.33
2023-07-11T16:20:22.395Z,5.07
2023-07-11T16:22:50.688Z,5.57
2023-07-11T16:25:22.248Z,5.50
2023-07-11T16:27:54.962Z,5.50
2023-07-11T16:30:24.490Z,5.40
2023-07-11T16:32:54.909Z,5.97
2023-07-11T16:35:37.548Z,5.70
2023-07-11T16:38:05.844Z,5.17
2023-07-11T16:40:34.209Z,4.73
2023-07-11T16:43:02.490Z,4.97
2023-07-11T16:45:33.241Z,5.00
2023-07-11T16:48:03.414Z,4.70
2023-07-11T16:50:33.999Z,5.50
2023-07-11T16:53:06.673Z,5.33
2023-07-11T16:55:34.948Z,5.10
2023-07-11T16:58:02.850Z,5.30
2023-07-11T17:00:30.734Z,5.10
2023-07-11T17:02:58.678Z,5.50
2023-07-11T17:05:28.671Z,4.97
2023-07-11T17:07:58.204Z,5.10
2023-07-11T17:10:26.130Z,4.87
2023-07-11T17:12:54.028Z,5.13
2023-07-11T17:15:22.065Z,4.83
2023-07-11T17:17:50.148Z,4.80
2023-07-11T17:20:21.807Z,5.70
2023-07-11T17:22:51.705Z,5.17
2023-07-11T17:25:20.828Z,5.57
2023-07-11T17:27:52.084Z,5.63
2023-07-11T17:30:22.607Z,5.17
2023-07-11T17:32:50.796Z,5.30
2023-07-11T17:35:19.060Z,4.97
2023-07-11T17:37:49.082Z,6.60
2023-07-11T17:40:23.596Z,5.60
2023-07-11T17:42:51.706Z,5.37
2023-07-11T17:45:41.780Z,5.90
2023-07-11T17:48:18.284Z,5.37
2023-07-11T17:50:47.512Z,4.70
2023-07-11T17:53:16.028Z,5.27
2023-07-11T17:55:48.471Z,5.03
2023-07-11T17:58:22.822Z,4.63
2023-07-11T18:00:51.369Z,4.93
2023-07-11T18:03:19.346Z,5.23
2023-07-11T18:05:48.265Z,4.80
2023-07-11T18:08:16.951Z,4.43
2023-07-11T18:10:46.614Z,4.73
2023-07-11T18:13:15.791Z,4.93
2023-07-11T18:15:44.997Z,4.70
2023-07-11T18:18:22.631Z,5.07
2023-07-11T18:20:50.787Z,4.50
2023-07-11T18:23:18.756Z,5.00
2023-07-11T18:25:48.508Z,4.60
2023-07-11T18:28:17.021Z,5.10
2023-07-11T18:30:45.160Z,4.43
2023-07-11T18:33:13.111Z,5.20
2023-07-11T18:35:41.663Z,5.23
2023-07-11T18:38:16.747Z,4.67
2023-07-11T18:40:46.355Z,4.43
2023-07-11T18:43:15.997Z,4.50
2023-07-11T18:45:47.561Z,4.90
2023-07-11T18:48:15.582Z,4.37
2023-07-11T18:50:44.452Z,6.07
2023-07-11T18:53:12.612Z,6.13
2023-07-11T18:55:43.271Z,6.07
2023-07-11T18:58:12.194Z,5.23
2023-07-11T19:00:43.108Z,4.27
2023-07-11T19:03:11.484Z,5.23
2023-07-11T19:05:40.688Z,4.40
2023-07-11T19:08:16.815Z,4.67
2023-07-11T19:10:44.749Z,4.50
2023-07-11T19:13:12.618Z,4.70
2023-07-11T19:15:42.317Z,4.57
2023-07-11T19:18:17.032Z,4.77
2023-07-11T19:20:45.423Z,4.40
2023-07-11T19:23:14.884Z,4.73
2023-07-11T19:25:45.352Z,4.50
2023-07-11T19:28:15.915Z,4.83
2023-07-11T19:30:47.866Z,4.97
2023-07-11T19:33:17.094Z,4.40
2023-07-11T19:35:49.893Z,4.40
2023-07-11T19:38:19.637Z,4.83
2023-07-11T19:40:47.942Z,4.53
2023-07-11T19:43:16.178Z,4.70
2023-07-11T19:45:47.651Z,4.47
2023-07-11T19:48:18.327Z,5.23
2023-07-11T19:50:47.303Z,4.87
2023-07-11T19:53:23.064Z,5.13
2023-07-11T19:55:52.515Z,4.40
2023-07-11T19:58:23.649Z,4.67
2023-07-11T20:00:57.505Z,4.70
2023-07-11T20:03:25.777Z,4.27
2023-07-11T20:05:54.339Z,4.73
2023-07-11T20:08:25.419Z,5.10
2023-07-11T20:10:55.356Z,4.90
2023-07-11T20:13:25.062Z,4.67
2023-07-11T20:15:56.776Z,4.90
2023-07-11T20:18:26.725Z,4.90
2023-07-11T20:20:56.129Z,4.90
2023-07-11T20:23:24.129Z,4.50
2023-07-11T20:25:55.433Z,4.73
2023-07-11T20:28:23.448Z,4.90
2023-07-11T20:30:54.743Z,4.57
2023-07-11T20:33:23.305Z,4.60
2023-07-11T20:35:52.538Z,5.00
2023-07-11T20:38:21.863Z,4.40
2023-07-11T20:40:50.708Z,4.70
2023-07-11T20:43:19.248Z,5.03
2023-07-11T20:45:51.622Z,4.90
2023-07-11T20:48:25.577Z,5.30
2023-07-11T20:50:53.649Z,4.90
2023-07-11T20:53:22.146Z,4.83
2023-07-11T20:55:52.528Z,4.87
2023-07-11T20:58:20.761Z,5.37
2023-07-11T21:00:49.868Z,5.17
2023-07-11T21:03:20.772Z,5.33
2023-07-11T21:05:51.121Z,4.97
2023-07-11T21:08:26.167Z,4.87
2023-07-11T21:10:54.774Z,4.40
2023-07-11T21:13:22.646Z,4.90
2023-07-11T21:15:51.186Z,5.30
2023-07-11T21:18:23.012Z,5.40
2023-07-11T21:20:52.292Z,4.60
2023-07-11T21:23:20.247Z,4.50
2023-07-11T21:25:48.642Z,5.07
2023-07-11T21:28:23.378Z,4.80
2023-07-11T21:30:52.026Z,5.57
2023-07-11T21:33:21.873Z,5.10
2023-07-11T21:35:50.212Z,5.37
2023-07-11T21:38:20.678Z,4.93
2023-07-11T21:40:48.646Z,5.17
2023-07-11T21:43:16.539Z,5.33
2023-07-11T21:45:44.470Z,4.93
2023-07-11T21:48:19.066Z,4.70
2023-07-11T21:50:54.286Z,4.80
2023-07-11T21:53:23.820Z,5.37
2023-07-11T21:55:52.640Z,4.63
2023-07-11T21:58:22.220Z,5.00
2023-07-11T22:00:50.634Z,4.57
2023-07-11T22:03:19.449Z,5.10
2023-07-11T22:05:50.110Z,5.00
2023-07-11T22:08:20.357Z,4.90
2023-07-11T22:10:48.781Z,5.00
2023-07-11T22:13:20.896Z,5.33
2023-07-11T22:15:48.943Z,5.77
2023-07-11T22:18:19.080Z,5.27
2023-07-11T22:20:48.944Z,5.13
2023-07-11T22:23:16.841Z,5.47
2023-07-11T22:25:45.146Z,5.40
2023-07-11T22:28:15.744Z,5.43
2023-07-11T22:30:45.165Z,5.80
2023-07-11T22:33:14.770Z,5.50
2023-07-11T22:35:42.700Z,5.07
2023-07-11T22:38:14.305Z,5.30
2023-07-11T22:40:44.050Z,5.60
2023-07-11T22:43:14.590Z,6.10
2023-07-11T22:45:43.772Z,5.93
2023-07-11T22:48:13.420Z,5.87
2023-07-11T22:50:43.266Z,6.13
2023-07-11T22:53:14.661Z,5.50
2023-07-11T22:55:43.873Z,5.03
2023-07-11T22:58:21.636Z,5.63
2023-07-11T23:00:49.798Z,4.90
2023-07-11T23:03:18.147Z,5.20
2023-07-11T23:05:46.550Z,5.30
2023-07-11T23:08:18.656Z,5.10
2023-07-11T23:10:46.596Z,5.47
2023-07-11T23:13:13.477Z,5.90
2023-07-11T23:15:42.265Z,5.50
2023-07-11T23:18:15.380Z,5.93
2023-07-11T23:20:46.317Z,5.40
2023-07-11T23:23:15.393Z,5.77
2023-07-11T23:25:44.600Z,6.77
2023-07-11T23:28:21.086Z,5.37
2023-07-11T23:30:49.045Z,5.90
2023-07-11T23:33:16.927Z,5.47
2023-07-11T23:35:45.041Z,5.80
2023-07-11T23:38:13.549Z,5.23
2023-07-11T23:40:44.785Z,5.13
2023-07-11T23:43:17.251Z,5.30
2023-07-11T23:45:46.287Z,6.50
2023-07-11T23:48:19.999Z,5.50
2023-07-11T23:50:52.909Z,5.73
2023-07-11T23:53:21.106Z,5.57
2023-07-11T23:55:51.940Z,4.90
2023-07-11T23:58:21.618Z,5.60
